Time;durP1;ratioP1;P1;durP2;ratioP2;P2;SDS_P1;SDS_P2;PMS_P1;PMS_P2;Temp;Humidity;BMP_temperature;BMP_pressure;BME280_temperature;BME280_humidity;BME280_pressure;Samples;Min_cycle;Max_cycle;Signal;HPM_P1;HPM_P2
2023/12/22 00:02:00;;;;;;;10.52;8.15;;;;;;;;;;4999496;28;20159;-85
2023/12/22 00:04:26;;;;;;;11.63;8.40;;;;;;;;;;5006368;28;20620;-86
2023/12/22 00:06:52;;;;;;;12.38;8.70;;;;;;;;;;4967747;28;20032;-85
2023/12/22 00:09:17;;;;;;;11.27;8.00;;;;;;;;;;5006776;28;20143;-85
2023/12/22 00:11:43;;;;;;;;;;;;;;;;;;4981522;28;20069;-85
2023/12/22 00:14:08;;;;;;;14.10;8.15;;;;;;;;;;5028569;28;19913;-85
2023/12/22 00:16:33;;;;;;;;;;;;;;;;;;4990521;28;20029;-85
2023/12/22 00:18:59;;;;;;;11.98;8.32;;;;;;;;;;5015639;28;19917;-86
2023/12/22 00:21:24;;;;;;;12.52;8.27;;;;;;;;;;5015576;28;20095;-85
2023/12/22 00:23:50;;;;;;;13.70;8.30;;;;;;;;;;5002058;28;20037;-85
2023/12/22 00:26:15;;;;;;;;;;;;;;;;;;4996587;28;20038;-85
2023/12/22 00:28:42;;;;;;;11.73;8.23;;;;;;;;;;5012097;28;19929;-85
2023/12/22 00:31:08;;;;;;;11.70;7.70;;;;;;;;;;5020476;28;20116;-84
2023/12/22 00:33:33;;;;;;;;;;;;;;;;;;5003723;28;20038;-84
2023/12/22 00:35:59;;;;;;;10.57;7.60;;;;;;;;;;5009264;28;20342;-86
2023/12/22 00:38:24;;;;;;;;;;;;;;;;;;4982111;28;20038;-84
2023/12/22 00:40:50;;;;;;;14.57;7.80;;;;;;;;;;5010762;28;19913;-86
2023/12/22 00:43:15;;;;;;;11.63;6.90;;;;;;;;;;4992934;28;20128;-85
2023/12/22 00:45:40;;;;;;;11.63;7.28;;;;;;;;;;5016351;28;20037;-85
2023/12/22 00:48:06;;;;;;;10.25;7.10;;;;;;;;;;5005744;28;20040;-84
2023/12/22 00:50:31;;;;;;;14.13;7.35;;;;;;;;;;5022988;28;20091;-85
2023/12/22 00:52:57;;;;;;;9.60;6.72;;;;;;;;;;5015250;28;20846;-86
2023/12/22 00:55:22;;;;;;;10.55;6.72;;;;;;;;;;4981421;28;20017;-86
2023/12/22 00:57:48;;;;;;;9.75;6.95;;;;;;;;;;5008322;28;20124;-85
2023/12/22 01:00:13;;;;;;;11.68;6.60;;;;;;;;;;5003042;28;20124;-86
2023/12/22 01:03:03;;;;;;;9.02;6.18;;;;;;;;;;5018733;28;20045;-85
2023/12/22 01:05:29;;;;;;;;;;;;;;;;;;5008314;28;20033;-84
2023/12/22 01:07:54;;;;;;;9.02;6.63;;;;;;;;;;5009033;28;19909;-86
2023/12/22 01:10:20;;;;;;;9.98;6.80;;;;;;;;;;5008825;28;20420;-86
2023/12/22 01:12:45;;;;;;;;;;;;;;;;;;5028414;28;20124;-85
2023/12/22 01:15:10;;;;;;;9.38;6.50;;;;;;;;;;5015393;28;19956;-86
2023/12/22 01:17:36;;;;;;;9.85;6.57;;;;;;;;;;5014687;28;20112;-86
2023/12/22 01:20:02;;;;;;;;;;;;;;;;;;5012557;28;20385;-86
2023/12/22 01:22:27;;;;;;;11.45;7.20;;;;;;;;;;5010296;28;19909;-86
2023/12/22 01:24:52;;;;;;;;;;;;;;;;;;4997085;28;20088;-85
2023/12/22 01:27:19;;;;;;;10.48;7.25;;;;;;;;;;5027745;28;19909;-86
2023/12/22 01:29:45;;;;;;;9.52;6.93;;;;;;;;;;5011069;28;20037;-85
2023/12/22 01:32:10;;;;;;;;;;;;;;;;;;5008418;28;20053;-84
2023/12/22 01:34:36;;;;;;;11.95;7.05;;;;;;;;;;5032206;28;19948;-84
2023/12/22 01:37:01;;;;;;;10.02;6.47;;;;;;;;;;5010912;28;20045;-85
2023/12/22 01:39:26;;;;;;;;;;;;;;;;;;4995736;28;20037;-85
2023/12/22 01:41:52;;;;;;;14.63;7.57;;;;;;;;;;5008209;28;19909;-86
2023/12/22 01:44:17;;;;;;;13.10;7.75;;;;;;;;;;4981937;28;20068;-86
2023/12/22 01:46:43;;;;;;;;;;;;;;;;;;4999250;28;20058;-86
2023/12/22 01:49:08;;;;;;;11.10;6.97;;;;;;;;;;5001902;28;20394;-86
2023/12/22 01:51:34;;;;;;;12.52;8.27;;;;;;;;;;5000937;28;20083;-86
2023/12/22 01:53:59;;;;;;;;;;;;;;;;;;5018079;28;20036;-85
2023/12/22 01:56:25;;;;;;;13.02;7.68;;;;;;;;;;5036364;28;19944;-85
2023/12/22 01:58:50;;;;;;;10.30;7.28;;;;;;;;;;5002098;28;20566;-85
2023/12/22 02:01:18;;;;;;;11.65;7.90;;;;;;;;;;5002012;28;20037;-85
2023/12/22 02:03:43;;;;;;;;;;;;;;;;;;5012080;28;20087;-85
2023/12/22 02:06:09;;;;;;;12.93;8.20;;;;;;;;;;5011640;28;19910;-86
2023/12/22 02:08:34;;;;;;;12.15;8.25;;;;;;;;;;5006608;28;20037;-86
2023/12/22 02:11:00;;;;;;;12.02;7.93;;;;;;;;;;4998872;28;20231;-86
2023/12/22 02:13:25;;;;;;;13.05;8.55;;;;;;;;;;4986418;28;20033;-87
2023/12/22 02:15:52;;;;;;;11.27;7.30;;;;;;;;;;4990116;28;20080;-86
2023/12/22 02:18:19;;;;;;;14.50;9.02;;;;;;;;;;5018604;28;20041;-84
2023/12/22 02:20:45;;;;;;;14.80;9.30;;;;;;;;;;5003043;28;20032;-84
2023/12/22 02:23:10;;;;;;;;;;;;;;;;;;4999713;28;20113;-85
2023/12/22 02:25:35;;;;;;;15.02;9.25;;;;;;;;;;5012441;28;19967;-86
2023/12/22 02:28:01;;;;;;;;;;;;;;;;;;5036103;28;20037;-88
2023/12/22 02:30:31;;;;;;;13.07;9.10;;;;;;;;;;5040235;28;19909;-88
2023/12/22 02:32:59;;;;;;;15.70;9.38;;;;;;;;;;5007791;28;20500;-85
2023/12/22 02:35:25;;;;;;;13.30;9.13;;;;;;;;;;5029849;28;20036;-86
2023/12/22 02:37:50;;;;;;;13.13;8.88;;;;;;;;;;4991905;28;20037;-86
2023/12/22 02:40:17;;;;;;;;;;;;;;;;;;5012586;28;20037;-85
2023/12/22 02:42:42;;;;;;;14.70;8.95;;;;;;;;;;4993088;28;19920;-87
2023/12/22 02:45:07;;;;;;;;;;;;;;;;;;5001493;28;20027;-85
2023/12/22 02:47:33;;;;;;;13.40;9.05;;;;;;;;;;5028529;28;19920;-85
2023/12/22 02:49:58;;;;;;;;;;;;;;;;;;5011417;28;20030;-86
2023/12/22 02:52:24;;;;;;;16.42;9.63;;;;;;;;;;5028185;28;19953;-86
2023/12/22 02:54:49;;;;;;;;;;;;;;;;;;5029405;28;20033;-85
2023/12/22 02:57:15;;;;;;;15.85;9.40;;;;;;;;;;5000554;28;19986;-86
2023/12/22 02:59:40;;;;;;;17.58;9.77;;;;;;;;;;4990783;28;20025;-86
2023/12/22 03:02:06;;;;;;;14.70;9.27;;;;;;;;;;5007025;28;20048;-85
2023/12/22 03:04:31;;;;;;;;;;;;;;;;;;4999093;28;20072;-85
2023/12/22 03:06:56;;;;;;;13.68;8.77;;;;;;;;;;4996419;28;19913;-85
2023/12/22 03:09:22;;;;;;;13.38;9.43;;;;;;;;;;5009876;28;20056;-84
2023/12/22 03:11:47;;;;;;;;;;;;;;;;;;5000543;28;20037;-86
2023/12/22 03:14:13;;;;;;;17.30;10.30;;;;;;;;;;5000729;28;19913;-86
2023/12/22 03:16:39;;;;;;;14.25;9.27;;;;;;;;;;5013874;28;20120;-84
2023/12/22 03:19:04;;;;;;;13.52;9.05;;;;;;;;;;5009960;28;20099;-85
2023/12/22 03:21:30;;;;;;;;;;;;;;;;;;5017070;28;20041;-85
2023/12/22 03:23:55;;;;;;;12.85;8.55;;;;;;;;;;5034104;28;19919;-86
2023/12/22 03:26:20;;;;;;;14.50;9.38;;;;;;;;;;5017099;28;20032;-86
2023/12/22 03:28:46;;;;;;;;;;;;;;;;;;5004327;28;20033;-85
2023/12/22 03:31:11;;;;;;;15.35;9.75;;;;;;;;;;5026936;28;19920;-85
2023/12/22 03:33:36;;;;;;;;;;;;;;;;;;4984206;28;20021;-85
2023/12/22 03:36:02;;;;;;;13.18;8.70;;;;;;;;;;5021776;28;19970;-86
2023/12/22 03:38:28;;;;;;;13.93;9.32;;;;;;;;;;4999687;28;20056;-86
2023/12/22 03:40:53;;;;;;;14.75;10.00;;;;;;;;;;5015709;28;20037;-86
2023/12/22 03:43:19;;;;;;;14.45;10.27;;;;;;;;;;4977682;28;20043;-86
2023/12/22 03:45:44;;;;;;;14.40;9.52;;;;;;;;;;5033558;28;20045;-86
2023/12/22 03:48:10;;;;;;;13.43;9.43;;;;;;;;;;5015944;28;20026;-86
2023/12/22 03:50:35;;;;;;;14.43;9.90;;;;;;;;;;5011095;28;20044;-86
2023/12/22 03:53:00;;;;;;;14.55;9.55;;;;;;;;;;5010508;28;20033;-86
2023/12/22 03:55:26;;;;;;;;;;;;;;;;;;5011282;28;20124;-86
2023/12/22 03:57:51;;;;;;;13.32;9.50;;;;;;;;;;5015595;28;19909;-87
2023/12/22 04:00:17;;;;;;;15.05;9.65;;;;;;;;;;5028412;28;20056;-86
2023/12/22 04:02:42;;;;;;;;;;;;;;;;;;4996598;28;20513;-86
2023/12/22 04:05:10;;;;;;;14.52;9.52;;;;;;;;;;5019745;28;19912;-86
2023/12/22 04:07:36;;;;;;;14.40;9.70;;;;;;;;;;5015615;28;20040;-86
2023/12/22 04:10:01;;;;;;;;;;;;;;;;;;5033042;28;20504;-86
2023/12/22 04:12:27;;;;;;;15.48;9.55;;;;;;;;;;5004005;28;19917;-86
2023/12/22 04:14:53;;;;;;;14.57;10.00;;;;;;;;;;4998011;28;20099;-87
2023/12/22 04:17:19;;;;;;;16.83;10.27;;;;;;;;;;4998735;28;20116;-87
2023/12/22 04:19:44;;;;;;;;;;;;;;;;;;5002050;28;20488;-86
2023/12/22 04:22:10;;;;;;;15.95;10.63;;;;;;;;;;5033004;28;20007;-86
2023/12/22 04:24:35;;;;;;;;;;;;;;;;;;5012036;28;20038;-85
2023/12/22 04:27:00;;;;;;;17.75;9.93;;;;;;;;;;5032307;28;19909;-86
2023/12/22 04:29:26;;;;;;;15.00;9.75;;;;;;;;;;4983232;28;20045;-86
2023/12/22 04:31:51;;;;;;;;;;;;;;;;;;5010047;28;20049;-87
2023/12/22 04:34:17;;;;;;;15.27;10.23;;;;;;;;;;5015938;28;19920;-87
2023/12/22 04:36:42;;;;;;;17.52;11.10;;;;;;;;;;5004841;28;20442;-87
2023/12/22 04:39:08;;;;;;;15.93;10.65;;;;;;;;;;5016417;28;20038;-88
2023/12/22 04:41:34;;;;;;;17.25;11.45;;;;;;;;;;5017151;28;20092;-88
2023/12/22 04:44:03;;;;;;;;;;;;;;;;;;5016820;28;20176;-87
2023/12/22 04:46:31;;;;;;;17.15;11.52;;;;;;;;;;5012927;28;19909;-87
2023/12/22 04:48:57;;;;;;;17.40;11.25;;;;;;;;;;4992506;28;20040;-87
2023/12/22 04:51:22;;;;;;;;;;;;;;;;;;4994247;28;20021;-87
2023/12/22 04:53:48;;;;;;;17.73;11.80;;;;;;;;;;5025010;28;19920;-85
2023/12/22 04:56:13;;;;;;;18.00;11.32;;;;;;;;;;5014481;28;20021;-86
2023/12/22 04:58:38;;;;;;;17.88;11.75;;;;;;;;;;5031849;28;20046;-85
2023/12/22 05:01:04;;;;;;;;;;;;;;;;;;4977768;28;20025;-86
2023/12/22 05:03:29;;;;;;;19.17;12.00;;;;;;;;;;5032970;28;19920;-87
2023/12/22 05:05:55;;;;;;;;;;;;;;;;;;5001494;28;20032;-85
2023/12/22 05:08:20;;;;;;;16.27;11.20;;;;;;;;;;5028269;28;19917;-86
2023/12/22 05:10:46;;;;;;;15.38;10.95;;;;;;;;;;5018500;28;20065;-86
2023/12/22 05:13:11;;;;;;;;;;;;;;;;;;5030228;28;20032;-86
2023/12/22 05:15:36;;;;;;;16.88;10.80;;;;;;;;;;5031918;28;20003;-86
2023/12/22 05:18:02;;;;;;;17.23;10.30;;;;;;;;;;5031816;28;20112;-86
2023/12/22 05:20:28;;;;;;;15.20;10.15;;;;;;;;;;5033020;28;20502;-87
2023/12/22 05:22:53;;;;;;;15.45;10.55;;;;;;;;;;5014483;28;20030;-86
2023/12/22 05:25:18;;;;;;;16.67;10.45;;;;;;;;;;5035831;28;20021;-86
2023/12/22 05:27:44;;;;;;;15.30;9.77;;;;;;;;;;5017858;28;20040;-84
2023/12/22 05:30:09;;;;;;;;;;;;;;;;;;5000996;28;20033;-85
2023/12/22 05:32:35;;;;;;;15.93;9.75;;;;;;;;;;5031352;28;19924;-85
2023/12/22 05:35:00;;;;;;;;;;;;;;;;;;5026525;28;20021;-86
2023/12/22 05:37:25;;;;;;;13.50;9.85;;;;;;;;;;5023328;28;19913;-86
2023/12/22 05:39:51;;;;;;;16.77;9.98;;;;;;;;;;5034381;28;20037;-86
2023/12/22 05:42:16;;;;;;;;;;;;;;;;;;5005435;28;20512;-86
2023/12/22 05:44:42;;;;;;;15.45;10.13;;;;;;;;;;5009004;28;20457;-87
2023/12/22 05:47:07;;;;;;;;;;;;;;;;;;5034404;28;20033;-84
2023/12/22 05:49:32;;;;;;;12.77;8.10;;;;;;;;;;5029097;28;20015;-86
2023/12/22 05:51:58;;;;;;;13.30;8.98;;;;;;;;;;5034816;28;20029;-86
2023/12/22 05:54:25;;;;;;;;;;;;;;;;;;5001086;28;20040;-86
2023/12/22 05:56:51;;;;;;;16.52;10.80;;;;;;;;;;5034804;28;20280;-86
2023/12/22 05:59:17;;;;;;;14.35;9.02;;;;;;;;;;5016860;28;20029;-86
2023/12/22 06:01:42;;;;;;;;;;;;;;;;;;5016310;28;20091;-85
2023/12/22 06:04:08;;;;;;;14.98;10.77;;;;;;;;;;5024679;28;19909;-86
2023/12/22 06:06:33;;;;;;;14.63;9.95;;;;;;;;;;5010388;28;20022;-85
2023/12/22 06:08:59;;;;;;;11.63;8.43;;;;;;;;;;5024744;28;20049;-87
2023/12/22 06:11:24;;;;;;;12.95;8.95;;;;;;;;;;5015706;28;20042;-86
2023/12/22 06:13:49;;;;;;;;;;;;;;;;;;5025032;28;20061;-86
2023/12/22 06:16:15;;;;;;;12.18;8.13;;;;;;;;;;5025925;28;19940;-86
2023/12/22 06:18:41;;;;;;;10.25;7.72;;;;;;;;;;5033788;28;20115;-86
2023/12/22 06:21:06;;;;;;;11.73;7.70;;;;;;;;;;5010127;28;20503;-84
2023/12/22 06:23:32;;;;;;;11.10;8.02;;;;;;;;;;5016027;28;20549;-86
2023/12/22 06:25:57;;;;;;;;;;;;;;;;;;5026629;28;20032;-86
2023/12/22 06:28:23;;;;;;;11.63;7.90;;;;;;;;;;5033924;28;20403;-86
2023/12/22 06:30:48;;;;;;;10.43;7.15;;;;;;;;;;5013796;28;20062;-86
2023/12/22 06:33:14;;;;;;;12.50;8.70;;;;;;;;;;5022471;28;20026;-87
2023/12/22 06:35:41;;;;;;;10.82;7.70;;;;;;;;;;5005953;28;20043;-86
2023/12/22 06:38:07;;;;;;;14.07;7.60;;;;;;;;;;5025001;28;20064;-86
2023/12/22 06:40:32;;;;;;;;;;;;;;;;;;5030789;28;20029;-86
2023/12/22 06:42:57;;;;;;;11.38;7.30;;;;;;;;;;5018816;28;20237;-85
2023/12/22 06:45:23;;;;;;;12.05;7.63;;;;;;;;;;5024507;28;20030;-85
2023/12/22 06:47:48;;;;;;;;;;;;;;;;;;5000454;28;20411;-88
2023/12/22 06:50:14;;;;;;;10.95;7.38;;;;;;;;;;5030379;28;19924;-88
2023/12/22 06:52:39;;;;;;;;;;;;;;;;;;5018184;28;20480;-86
2023/12/22 06:55:05;;;;;;;12.57;8.13;;;;;;;;;;5030798;28;19928;-87
2023/12/22 06:57:30;;;;;;;;;;;;;;;;;;5025831;28;20036;-87
2023/12/22 06:59:56;;;;;;;12.25;7.63;;;;;;;;;;5024017;28;19913;-86
2023/12/22 07:02:21;;;;;;;9.13;6.88;;;;;;;;;;5032658;28;20026;-87
2023/12/22 07:05:09;;;;;;;10.70;7.85;;;;;;;;;;5032739;28;20175;-87
2023/12/22 07:07:35;;;;;;;11.18;7.05;;;;;;;;;;5022222;28;20042;-86
2023/12/22 07:10:00;;;;;;;;;;;;;;;;;;5014009;28;20099;-86
2023/12/22 07:12:25;;;;;;;10.85;7.05;;;;;;;;;;5032550;28;20008;-87
2023/12/22 07:14:51;;;;;;;11.88;7.72;;;;;;;;;;5010371;28;20029;-87
2023/12/22 07:17:16;;;;;;;10.77;7.47;;;;;;;;;;4981735;28;20030;-87
2023/12/22 07:19:42;;;;;;;12.65;8.52;;;;;;;;;;5019989;28;20697;-87
2023/12/22 07:22:07;;;;;;;12.45;8.27;;;;;;;;;;5024879;28;20060;-87
2023/12/22 07:24:32;;;;;;;;;;;;;;;;;;5030140;28;20029;-86
2023/12/22 07:26:58;;;;;;;11.40;7.65;;;;;;;;;;5014941;28;19913;-86
2023/12/22 07:29:23;;;;;;;11.63;7.20;;;;;;;;;;5012962;28;20045;-86
2023/12/22 07:31:49;;;;;;;10.30;7.15;;;;;;;;;;5032469;28;20032;-86
2023/12/22 07:34:15;;;;;;;9.63;7.18;;;;;;;;;;5021754;28;20032;-87
2023/12/22 07:36:40;;;;;;;;;;;;;;;;;;5032983;28;20072;-86
2023/12/22 07:39:06;;;;;;;11.43;7.43;;;;;;;;;;5001209;28;20364;-87
2023/12/22 07:41:32;;;;;;;12.30;7.55;;;;;;;;;;5006170;28;20037;-87
2023/12/22 07:43:57;;;;;;;;;;;;;;;;;;4984226;28;20032;-87
2023/12/22 07:46:23;;;;;;;10.50;6.55;;;;;;;;;;5023112;28;19967;-87
2023/12/22 07:48:48;;;;;;;11.50;6.95;;;;;;;;;;4996034;28;20033;-87
2023/12/22 07:51:14;;;;;;;11.80;8.13;;;;;;;;;;5023657;28;20037;-87
2023/12/22 07:53:39;;;;;;;;;;;;;;;;;;4989318;28;20526;-85
2023/12/22 07:56:05;;;;;;;13.00;7.97;;;;;;;;;;5031943;28;19942;-87
2023/12/22 07:58:30;;;;;;;;;;;;;;;;;;5023690;28;20496;-86
2023/12/22 08:00:56;;;;;;;11.57;7.53;;;;;;;;;;5007143;28;19913;-86
2023/12/22 08:03:21;;;;;;;11.98;8.23;;;;;;;;;;4994854;28;20026;-87
2023/12/22 08:05:47;;;;;;;;;;;;;;;;;;5031874;28;20029;-87
2023/12/22 08:08:12;;;;;;;10.40;6.90;;;;;;;;;;5013559;28;20442;-86
2023/12/22 08:10:38;;;;;;;10.38;7.10;;;;;;;;;;5031325;28;20053;-87
2023/12/22 08:13:03;;;;;;;11.90;8.10;;;;;;;;;;4997982;28;20034;-87
2023/12/22 08:15:29;;;;;;;10.25;6.80;;;;;;;;;;5014090;28;20033;-86
2023/12/22 08:17:54;;;;;;;13.10;7.93;;;;;;;;;;5031043;28;20557;-85
2023/12/22 08:20:20;;;;;;;;;;;;;;;;;;5014661;28;20439;-86
2023/12/22 08:22:45;;;;;;;8.95;6.22;;;;;;;;;;5031959;28;19962;-87
2023/12/22 08:25:11;;;;;;;;;;;;;;;;;;4992512;28;20053;-86
2023/12/22 08:27:36;;;;;;;10.82;6.93;;;;;;;;;;5020521;28;20429;-87
2023/12/22 08:30:03;;;;;;;;;;;;;;;;;;5014728;28;20478;-87
2023/12/22 08:32:28;;;;;;;10.68;7.30;;;;;;;;;;5014342;28;19909;-87
2023/12/22 08:34:54;;;;;;;11.60;6.88;;;;;;;;;;5013932;28;20052;-87
2023/12/22 08:37:19;;;;;;;9.88;6.72;;;;;;;;;;5013471;28;20049;-87
2023/12/22 08:39:45;;;;;;;9.38;6.50;;;;;;;;;;5013069;28;20041;-87
2023/12/22 08:42:10;;;;;;;10.85;6.80;;;;;;;;;;5013728;28;20056;-87
2023/12/22 08:44:36;;;;;;;9.02;6.05;;;;;;;;;;5026521;28;20865;-86
2023/12/22 08:47:02;;;;;;;12.13;7.57;;;;;;;;;;4991048;28;20403;-87
2023/12/22 08:49:27;;;;;;;11.13;7.05;;;;;;;;;;5013395;28;20048;-87
2023/12/22 08:51:53;;;;;;;10.15;6.47;;;;;;;;;;5014632;28;20079;-87
2023/12/22 08:54:18;;;;;;;;;;;;;;;;;;5022585;28;20033;-87
2023/12/22 08:56:43;;;;;;;12.60;8.05;;;;;;;;;;5029359;28;19955;-87
2023/12/22 08:59:09;;;;;;;10.68;7.25;;;;;;;;;;4994897;28;20045;-87
2023/12/22 09:01:35;;;;;;;10.40;6.93;;;;;;;;;;5011956;28;20186;-88
2023/12/22 09:04:01;;;;;;;10.32;6.97;;;;;;;;;;4998094;28;20044;-86
2023/12/22 09:06:27;;;;;;;9.32;6.65;;;;;;;;;;5031386;28;20380;-87
2023/12/22 09:08:52;;;;;;;10.13;6.53;;;;;;;;;;5013641;28;20037;-87
2023/12/22 09:11:18;;;;;;;10.68;6.82;;;;;;;;;;5011846;28;20538;-88
2023/12/22 09:13:44;;;;;;;9.23;6.05;;;;;;;;;;5013314;28;20116;-87
2023/12/22 09:16:09;;;;;;;10.52;6.35;;;;;;;;;;5013142;28;20156;-86
2023/12/22 09:18:35;;;;;;;9.68;6.18;;;;;;;;;;5030792;28;20064;-87
2023/12/22 09:21:01;;;;;;;9.55;6.15;;;;;;;;;;5012821;28;20029;-87
2023/12/22 09:23:26;;;;;;;;;;;;;;;;;;5015761;28;20053;-87
2023/12/22 09:25:51;;;;;;;9.57;5.55;;;;;;;;;;5032062;28;20363;-87
2023/12/22 09:28:17;;;;;;;9.88;6.07;;;;;;;;;;5012596;28;20075;-86
2023/12/22 09:30:42;;;;;;;9.75;6.30;;;;;;;;;;5012536;28;20024;-87
2023/12/22 09:33:11;;;;;;;9.35;6.32;;;;;;;;;;5003224;28;20048;-87
2023/12/22 09:35:36;;;;;;;11.68;7.40;;;;;;;;;;5012533;28;20025;-87
2023/12/22 09:38:02;;;;;;;8.65;6.15;;;;;;;;;;5004136;28;20025;-87
2023/12/22 09:40:28;;;;;;;9.93;6.57;;;;;;;;;;4987295;28;20439;-87
2023/12/22 09:42:56;;;;;;;9.07;5.95;;;;;;;;;;4996912;28;20049;-86
2023/12/22 09:45:22;;;;;;;9.52;5.93;;;;;;;;;;5014098;28;20030;-87
2023/12/22 09:47:50;;;;;;;8.57;5.78;;;;;;;;;;5014383;28;20041;-87
2023/12/22 09:50:15;;;;;;;8.75;5.93;;;;;;;;;;5013349;28;20044;-87
2023/12/22 09:52:41;;;;;;;;;;;;;;;;;;5028371;28;20034;-87
2023/12/22 09:55:07;;;;;;;9.18;5.90;;;;;;;;;;5024136;28;19913;-87
2023/12/22 09:57:32;;;;;;;8.15;5.13;;;;;;;;;;4989094;28;20030;-87
2023/12/22 09:59:58;;;;;;;8.55;5.68;;;;;;;;;;5017233;28;20083;-86
2023/12/22 10:02:23;;;;;;;;;;;;;;;;;;5031759;28;20412;-86
2023/12/22 10:04:49;;;;;;;7.35;5.20;;;;;;;;;;5031829;28;20397;-86
2023/12/22 10:07:14;;;;;;;7.68;5.30;;;;;;;;;;5000744;28;20069;-87
2023/12/22 10:09:39;;;;;;;;;;;;;;;;;;5015844;28;20076;-88
2023/12/22 10:12:05;;;;;;;7.32;4.72;;;;;;;;;;5029873;28;19925;-88
2023/12/22 10:14:31;;;;;;;7.10;5.57;;;;;;;;;;5013696;28;20388;-87
2023/12/22 10:16:57;;;;;;;8.60;6.13;;;;;;;;;;5021149;28;20037;-87
2023/12/22 10:19:22;;;;;;;;;;;;;;;;;;5018358;28;20038;-87
2023/12/22 10:21:51;;;;;;;6.55;4.72;;;;;;;;;;5017418;28;19936;-87
2023/12/22 10:24:35;;;;;;;8.43;5.25;;;;;;;;;;5035643;28;20125;-87
2023/12/22 10:27:00;;;;;;;7.60;4.70;;;;;;;;;;5020610;28;20117;-87
2023/12/22 10:29:26;;;;;;;;;;;;;;;;;;5015897;28;20112;-87
2023/12/22 10:31:51;;;;;;;6.82;4.50;;;;;;;;;;5032007;28;19919;-87
2023/12/22 10:34:17;;;;;;;;;;;;;;;;;;5025448;28;20534;-85
2023/12/22 10:36:43;;;;;;;7.65;5.22;;;;;;;;;;5027291;28;19967;-87
2023/12/22 10:39:08;;;;;;;;;;;;;;;;;;5016516;28;20098;-87
2023/12/22 10:41:34;;;;;;;6.07;4.20;;;;;;;;;;5027906;28;19920;-87
2023/12/22 10:43:59;;;;;;;;;;;;;;;;;;5034858;28;20070;-87
2023/12/22 10:46:24;;;;;;;7.78;5.55;;;;;;;;;;5034823;28;20172;-87
2023/12/22 10:48:50;;;;;;;;;;;;;;;;;;5018445;28;20075;-87
2023/12/22 10:51:16;;;;;;;6.95;4.85;;;;;;;;;;5026357;28;19901;-87
2023/12/22 10:53:42;;;;;;;8.43;6.15;;;;;;;;;;5012809;28;20052;-87
2023/12/22 10:56:07;;;;;;;;;;;;;;;;;;4979068;28;20073;-87
2023/12/22 10:58:33;;;;;;;6.78;4.78;;;;;;;;;;5015355;28;20414;-88
2023/12/22 11:00:58;;;;;;;;;;;;;;;;;;5000906;28;20083;-87
2023/12/22 11:03:25;;;;;;;8.10;5.15;;;;;;;;;;5030617;28;19920;-86
2023/12/22 11:05:50;;;;;;;8.00;4.93;;;;;;;;;;5012769;28;20038;-86
2023/12/22 11:08:15;;;;;;;;;;;;;;;;;;5016968;28;20761;-87
2023/12/22 11:10:41;;;;;;;7.53;4.78;;;;;;;;;;5006414;28;19967;-87
2023/12/22 11:13:07;;;;;;;8.55;5.45;;;;;;;;;;4970509;28;20033;-87
2023/12/22 11:15:32;;;;;;;6.80;5.18;;;;;;;;;;5006141;28;20515;-87
2023/12/22 11:17:58;;;;;;;7.60;4.95;;;;;;;;;;5002331;28;20489;-87
2023/12/22 11:20:24;;;;;;;8.50;5.20;;;;;;;;;;4997977;28;20066;-87
2023/12/22 11:22:51;;;;;;;;;;;;;;;;;;5005082;28;20092;-86
2023/12/22 11:25:16;;;;;;;9.35;5.93;;;;;;;;;;5005947;28;19913;-88
2023/12/22 11:27:41;;;;;;;;;;;;;;;;;;4987130;28;20404;-87
2023/12/22 11:30:08;;;;;;;15.65;11.77;;;;;;;;;;5004336;28;19913;-86
2023/12/22 11:32:34;;;;;;;12.57;8.52;;;;;;;;;;5002857;28;20027;-86
2023/12/22 11:34:59;;;;;;;11.57;7.90;;;;;;;;;;4988101;28;20524;-87
2023/12/22 11:37:24;;;;;;;9.95;6.18;;;;;;;;;;4999655;28;20043;-86
2023/12/22 11:39:51;;;;;;;10.52;6.35;;;;;;;;;;4987296;28;20041;-87
2023/12/22 11:42:16;;;;;;;;;;;;;;;;;;5003037;28;20121;-86
2023/12/22 11:44:41;;;;;;;8.57;5.57;;;;;;;;;;5004567;28;19929;-87
2023/12/22 11:47:07;;;;;;;7.88;5.47;;;;;;;;;;5003314;28;20105;-87
2023/12/22 11:49:33;;;;;;;;;;;;;;;;;;5001121;28;20077;-87
2023/12/22 11:51:59;;;;;;;7.10;5.07;;;;;;;;;;5000541;28;19956;-87
2023/12/22 11:55:03;;;;;;;8.25;5.70;;;;;;;;;;5003604;28;20493;-87
2023/12/22 11:57:32;;;;;;;8.55;5.22;;;;;;;;;;4960851;28;20157;-88
2023/12/22 11:59:58;;;;;;;7.57;5.40;;;;;;;;;;4962401;28;20114;-85
2023/12/22 12:02:23;;;;;;;7.65;5.57;;;;;;;;;;4964048;28;20045;-87
2023/12/22 12:04:49;;;;;;;;;;;;;;;;;;4991778;28;20690;-87
2023/12/22 12:07:32;;;;;;;7.30;5.25;;;;;;;;;;4992701;28;19913;-87
2023/12/22 12:09:59;;;;;;;8.35;5.38;;;;;;;;;;5015700;28;20192;-88
2023/12/22 12:12:24;;;;;;;;;;;;;;;;;;4995578;28;20030;-87
2023/12/22 12:14:49;;;;;;;8.35;5.43;;;;;;;;;;5017873;28;19913;-87
2023/12/22 12:17:15;;;;;;;;;;;;;;;;;;5003998;28;20084;-87
2023/12/22 12:19:41;;;;;;;7.53;5.40;;;;;;;;;;5018211;28;19964;-87
2023/12/22 12:22:07;;;;;;;;;;;;;;;;;;5014739;28;20760;-86
2023/12/22 12:24:32;;;;;;;7.78;5.10;;;;;;;;;;5013974;28;19920;-87
2023/12/22 12:26:57;;;;;;;;;;;;;;;;;;5021388;28;20025;-87
2023/12/22 12:29:23;;;;;;;7.35;5.05;;;;;;;;;;5015952;28;19913;-86
2023/12/22 12:31:48;;;;;;;7.50;5.05;;;;;;;;;;5005019;28;20025;-87
2023/12/22 12:34:16;;;;;;;11.18;7.32;;;;;;;;;;5027876;28;20083;-88
2023/12/22 12:36:41;;;;;;;7.95;4.97;;;;;;;;;;4980745;28;20037;-87
2023/12/22 12:39:07;;;;;;;8.90;5.15;;;;;;;;;;4986356;28;20086;-87
2023/12/22 12:41:33;;;;;;;;;;;;;;;;;;5014842;28;20029;-86
2023/12/22 12:43:58;;;;;;;7.10;5.20;;;;;;;;;;5014574;28;19913;-86
2023/12/22 12:46:23;;;;;;;8.25;4.93;;;;;;;;;;5031509;28;20172;-87
2023/12/22 12:49:02;;;;;;;7.47;5.10;;;;;;;;;;5021660;28;20495;-87
2023/12/22 12:51:27;;;;;;;7.35;5.00;;;;;;;;;;5032008;28;20061;-89
2023/12/22 12:53:53;;;;;;;;;;;;;;;;;;4994602;28;20053;-87
2023/12/22 12:56:18;;;;;;;6.75;4.57;;;;;;;;;;5015191;28;19913;-86
2023/12/22 12:58:44;;;;;;;;;;;;;;;;;;5021205;28;20044;-87
2023/12/22 13:01:12;;;;;;;6.45;4.10;;;;;;;;;;5030992;28;19913;-88
2023/12/22 13:03:56;;;;;;;6.88;4.68;;;;;;;;;;5030783;28;20040;-87
2023/12/22 13:06:21;;;;;;;6.10;4.35;;;;;;;;;;5017457;28;20485;-88
2023/12/22 13:08:47;;;;;;;;;;;;;;;;;;4982320;28;20041;-87
2023/12/22 13:11:12;;;;;;;6.43;4.32;;;;;;;;;;5024886;28;19920;-87
2023/12/22 13:13:37;;;;;;;;;;;;;;;;;;5008167;28;20038;-87
2023/12/22 13:16:03;;;;;;;6.50;4.32;;;;;;;;;;5017979;28;19996;-86
2023/12/22 13:18:29;;;;;;;6.68;4.40;;;;;;;;;;5004682;28;20029;-86
2023/12/22 13:20:54;;;;;;;7.65;4.22;;;;;;;;;;5004386;28;20395;-87
2023/12/22 13:23:19;;;;;;;6.22;4.32;;;;;;;;;;5027403;28;20041;-87
2023/12/22 13:25:46;;;;;;;5.95;3.78;;;;;;;;;;5000349;28;20069;-87
2023/12/22 13:28:11;;;;;;;5.72;3.85;;;;;;;;;;4993841;28;20030;-87
2023/12/22 13:30:40;;;;;;;6.00;4.20;;;;;;;;;;5001458;28;20037;-87
2023/12/22 13:33:05;;;;;;;6.50;3.88;;;;;;;;;;5009407;28;20417;-87
2023/12/22 13:35:31;;;;;;;5.13;3.50;;;;;;;;;;5002805;28;20046;-87
2023/12/22 13:37:56;;;;;;;6.32;4.47;;;;;;;;;;5011051;28;20634;-86
2023/12/22 13:40:22;;;;;;;5.80;4.05;;;;;;;;;;5002477;28;20038;-86
2023/12/22 13:43:02;;;;;;;5.95;4.35;;;;;;;;;;5024099;28;20488;-87
2023/12/22 13:45:28;;;;;;;6.43;4.07;;;;;;;;;;5012359;28;20474;-86
2023/12/22 13:47:54;;;;;;;;;;;;;;;;;;5018460;28;20082;-87
2023/12/22 13:50:19;;;;;;;5.50;3.33;;;;;;;;;;5011080;28;19912;-87
2023/12/22 13:52:44;;;;;;;;;;;;;;;;;;5015208;28;20029;-87
2023/12/22 13:55:14;;;;;;;6.45;4.20;;;;;;;;;;5025407;28;19913;-87
2023/12/22 13:57:40;;;;;;;5.43;3.70;;;;;;;;;;5007362;28;20037;-88
2023/12/22 14:00:05;;;;;;;;;;;;;;;;;;4998684;28;20042;-88
2023/12/22 14:02:31;;;;;;;5.63;3.50;;;;;;;;;;5034124;28;19909;-88
2023/12/22 14:04:56;;;;;;;5.45;3.80;;;;;;;;;;4997515;28;20049;-87
2023/12/22 14:07:21;;;;;;;;;;;;;;;;;;5015849;28;20022;-86
2023/12/22 14:09:47;;;;;;;5.65;3.72;;;;;;;;;;5029086;28;19921;-87
2023/12/22 14:12:12;;;;;;;;;;;;;;;;;;5008550;28;20120;-87
2023/12/22 14:14:38;;;;;;;4.68;3.47;;;;;;;;;;5035166;28;20037;-86
2023/12/22 14:17:03;;;;;;;5.05;3.75;;;;;;;;;;5027292;28;20030;-87
2023/12/22 14:19:29;;;;;;;5.72;3.80;;;;;;;;;;5019920;28;20037;-87
2023/12/22 14:21:54;;;;;;;;;;;;;;;;;;4997333;28;20026;-86
2023/12/22 14:24:19;;;;;;;5.55;4.10;;;;;;;;;;5030279;28;19913;-87
2023/12/22 14:26:55;;;;;;;5.50;3.70;;;;;;;;;;5023655;28;20077;-87
2023/12/22 14:29:22;;;;;;;6.07;3.50;;;;;;;;;;4986982;28;20044;-87
2023/12/22 14:31:48;;;;;;;5.85;4.28;;;;;;;;;;5034669;28;20048;-87
2023/12/22 14:34:14;;;;;;;5.38;3.90;;;;;;;;;;5015042;28;20052;-88
2023/12/22 14:36:39;;;;;;;7.40;5.15;;;;;;;;;;5001628;28;20447;-88
2023/12/22 14:39:05;;;;;;;;;;;;;;;;;;5033516;28;20217;-86
2023/12/22 14:41:30;;;;;;;6.80;4.70;;;;;;;;;;5008599;28;19935;-88
2023/12/22 14:43:56;;;;;;;;;;;;;;;;;;5005371;28;20033;-88
2023/12/22 14:46:21;;;;;;;7.55;5.25;;;;;;;;;;5016969;28;20298;-88
2023/12/22 14:48:47;;;;;;;7.10;5.15;;;;;;;;;;5003731;28;20040;-87
2023/12/22 14:51:12;;;;;;;7.78;5.15;;;;;;;;;;5000167;28;20594;-89
2023/12/22 14:53:38;;;;;;;;;;;;;;;;;;5020845;28;20056;-89
2023/12/22 14:56:03;;;;;;;9.88;6.53;;;;;;;;;;5015038;28;19987;-88
2023/12/22 14:58:30;;;;;;;9.50;6.07;;;;;;;;;;5015191;28;20029;-89